Aviation Digital Data Service (ADDS)

Output produced by METARs form (1205 UTC 27 April 2015)
found at http://aviationweather.gov/adds/metars/
 
KARA 271153Z 09009KT 5SM BR FEW060 23/21 A2965 RMK AO2 SLP038 T02330211 10239 20233 56015